This is the latest recevied weather packets stored in our database for station/object IT9IJI-15. If no packets are shown the sender has not sent any weather packets the latest 10 day(s).
| Time | Temp. | Humidity | Pressure | Rain* | Wind** | Luminosity | Snow |
|---|---|---|---|---|---|---|---|
| 1777118701 | 27.22° C | 33% | 892.4 hPa | - | - | - | - |
| 1777117801 | 27.22° C | 34% | 892.2 hPa | - | - | - | - |
| 1777116901 | 27.22° C | 33% | 892.3 hPa | - | - | - | - |
| 1777116001 | 27.22° C | 34% | 892.3 hPa | - | - | - | - |
| 1777115101 | 27.22° C | 34% | 892.3 hPa | - | - | - | - |
| 1777114201 | 27.22° C | 34% | 892.4 hPa | - | - | - | - |
| 1777113301 | 27.22° C | 34% | 892.6 hPa | - | - | - | - |
| 1777112404 | 19.44° C | 35% | 884.8 hPa | - | - | - | - |
| 1777111477 | 27.22° C | 34% | 892.6 hPa | - | - | - | - |
| 1777110577 | 26.67° C | 34% | 892.6 hPa | - | - | - | - |
| 1777109677 | 27.22° C | 34% | 892.7 hPa | - | - | - | - |
| 1777108779 | 26.67° C | 35% | 892.6 hPa | - | - | - | - |
| 1777107877 | 27.22° C | 35% | 892.6 hPa | - | - | - | - |
| 1777106985 | 26.67° C | 36% | 892.6 hPa | - | - | - | - |
| 1777106084 | 26.67° C | 37% | 892.5 hPa | - | - | - | - |
| 1777105185 | 25.56° C | 41% | 892.4 hPa | - | - | - | - |
| 1777104277 | 19.44° C | 56% | 892.3 hPa | - | - | - | - |
| 1777051204 | 27.22° C | 32% | 890.4 hPa | - | - | - | - |
| 1777050307 | 20° C | 31% | 882.6 hPa | - | - | - | - |
| 1777049380 | 27.78° C | 31% | 890.5 hPa | - | - | - | - |
| 1777048480 | 27.78° C | 31% | 890.3 hPa | - | - | - | - |
| 1777047580 | 27.78° C | 31% | 890.6 hPa | - | - | - | - |
| 1777046680 | 27.78° C | 31% | 890.6 hPa | - | - | - | - |
| 1777045780 | 27.78° C | 31% | 890.7 hPa | - | - | - | - |
| 1777044880 | 27.78° C | 31% | 890.7 hPa | - | - | - | - |
* Rain since midnight (hover to see other rain measurements)
** Current wind speed in m/s (hover to see current wind gust speed)